createdAt,value
2016-10-10T00:00:21.081Z,0
2016-10-10T00:01:21.744Z,0
2016-10-10T00:02:22.420Z,0
2016-10-10T00:03:23.087Z,0
2016-10-10T00:04:23.765Z,0
2016-10-10T00:05:24.423Z,0
2016-10-10T00:06:25.101Z,0
2016-10-10T00:07:25.763Z,0
2016-10-10T00:08:26.429Z,0
2016-10-10T00:09:27.089Z,0
2016-10-10T00:10:27.748Z,0
2016-10-10T00:11:28.424Z,0
2016-10-10T00:12:29.084Z,0
2016-10-10T00:13:29.736Z,0
2016-10-10T00:14:30.401Z,0
2016-10-10T00:15:31.069Z,0
2016-10-10T00:16:31.725Z,0
2016-10-10T00:17:32.410Z,0
2016-10-10T00:18:33.084Z,0
2016-10-10T00:19:33.739Z,0
2016-10-10T00:20:34.391Z,0
2016-10-10T00:21:35.064Z,0
2016-10-10T00:22:35.721Z,0
2016-10-10T00:23:36.396Z,0
2016-10-10T00:24:37.088Z,0
2016-10-10T00:25:37.752Z,0
2016-10-10T00:26:38.425Z,0
2016-10-10T00:27:39.096Z,0
2016-10-10T00:28:39.774Z,0
2016-10-10T00:29:40.449Z,0
2016-10-10T00:30:41.114Z,0
2016-10-10T00:31:41.774Z,0
2016-10-10T00:32:42.440Z,0
2016-10-10T00:33:43.099Z,0
2016-10-10T00:34:43.763Z,0
2016-10-10T00:35:44.420Z,0
2016-10-10T00:36:45.091Z,0
2016-10-10T00:37:45.743Z,0
2016-10-10T00:38:46.396Z,0
2016-10-10T00:39:47.057Z,0
2016-10-10T00:40:47.731Z,0
2016-10-10T00:41:48.402Z,0
2016-10-10T00:42:49.064Z,0
2016-10-10T00:43:49.738Z,0
2016-10-10T00:44:50.416Z,0
2016-10-10T00:45:51.089Z,0
2016-10-10T00:46:51.746Z,0
2016-10-10T00:47:52.411Z,0
2016-10-10T00:48:53.107Z,0
2016-10-10T00:49:53.788Z,0
2016-10-10T00:50:54.463Z,0
2016-10-10T00:51:55.126Z,0
2016-10-10T00:52:55.778Z,0
2016-10-10T00:53:56.454Z,0
2016-10-10T00:54:57.114Z,0
2016-10-10T00:55:57.773Z,0
2016-10-10T00:56:58.436Z,0
2016-10-10T00:57:59.092Z,0
2016-10-10T00:58:59.757Z,0
2016-10-10T01:00:00.425Z,0
2016-10-10T01:01:01.098Z,0
2016-10-10T01:02:01.768Z,0
2016-10-10T01:03:02.428Z,0
2016-10-10T01:04:03.087Z,0
2016-10-10T01:05:03.763Z,0
2016-10-10T01:06:04.455Z,0
2016-10-10T01:07:05.110Z,0
2016-10-10T01:08:05.772Z,0
2016-10-10T01:09:06.431Z,0
2016-10-10T01:10:07.082Z,0
2016-10-10T01:11:07.775Z,0
2016-10-10T01:12:08.441Z,0
2016-10-10T01:13:09.113Z,0
2016-10-10T01:14:09.772Z,0
2016-10-10T01:15:10.431Z,0
2016-10-10T01:16:11.106Z,0
2016-10-10T01:17:11.774Z,0
2016-10-10T01:18:12.437Z,0
2016-10-10T01:19:13.098Z,0
2016-10-10T01:20:13.754Z,0
2016-10-10T01:21:14.446Z,0
2016-10-10T01:22:15.112Z,0
2016-10-10T01:23:15.791Z,0
2016-10-10T01:24:16.466Z,0
2016-10-10T01:25:17.140Z,0
2016-10-10T01:26:17.803Z,0
2016-10-10T01:27:18.458Z,0
2016-10-10T01:28:19.157Z,0
2016-10-10T01:29:19.827Z,0
2016-10-10T01:30:20.487Z,0
2016-10-10T01:31:21.168Z,0
2016-10-10T01:32:21.833Z,0
2016-10-10T01:33:22.515Z,0
2016-10-10T01:34:23.182Z,0
2016-10-10T01:35:23.852Z,0
2016-10-10T01:36:24.527Z,0
2016-10-10T01:37:25.201Z,0
2016-10-10T01:38:25.875Z,0
2016-10-10T01:39:26.544Z,0
2016-10-10T01:40:27.199Z,0
2016-10-10T01:41:27.868Z,0
2016-10-10T01:42:28.543Z,0
2016-10-10T01:43:29.216Z,0
2016-10-10T01:44:29.882Z,0
2016-10-10T01:45:30.523Z,0
2016-10-10T01:46:31.204Z,0
2016-10-10T01:47:31.851Z,0
2016-10-10T01:48:32.507Z,0
2016-10-10T01:49:33.161Z,0
2016-10-10T01:50:33.840Z,0
2016-10-10T01:51:34.516Z,0
2016-10-10T01:52:35.174Z,0
2016-10-10T01:53:35.854Z,0
2016-10-10T01:54:36.544Z,0
2016-10-10T01:55:37.200Z,0
2016-10-10T01:56:37.881Z,0
2016-10-10T01:57:38.541Z,0
2016-10-10T01:58:39.224Z,0
2016-10-10T01:59:39.903Z,0
2016-10-10T02:00:40.562Z,0
2016-10-10T02:01:41.229Z,0
2016-10-10T02:02:41.887Z,0
2016-10-10T02:03:42.581Z,0
2016-10-10T02:04:43.242Z,0
2016-10-10T02:05:43.905Z,0
2016-10-10T02:06:44.590Z,0
2016-10-10T02:07:45.262Z,0
2016-10-10T02:08:45.930Z,0
2016-10-10T02:09:46.607Z,0
2016-10-10T02:10:47.279Z,0
2016-10-10T02:11:47.952Z,0
2016-10-10T02:12:48.619Z,0
2016-10-10T02:13:49.294Z,0
2016-10-10T02:14:49.980Z,0
2016-10-10T02:15:50.648Z,0
2016-10-10T02:16:51.311Z,0
2016-10-10T02:17:51.968Z,0
2016-10-10T02:18:52.639Z,0
2016-10-10T02:19:53.294Z,0
2016-10-10T02:20:53.953Z,0
2016-10-10T02:21:54.622Z,0
2016-10-10T02:22:55.296Z,0
2016-10-10T02:23:55.967Z,0
2016-10-10T02:24:56.647Z,0
2016-10-10T02:25:57.312Z,0
2016-10-10T02:26:57.980Z,0
2016-10-10T02:27:58.709Z,0
2016-10-10T02:28:59.382Z,0
2016-10-10T02:30:00.058Z,0
2016-10-10T02:31:00.722Z,0
2016-10-10T02:32:01.403Z,0
2016-10-10T02:33:02.061Z,0
2016-10-10T02:34:02.744Z,0
2016-10-10T02:35:03.422Z,0
2016-10-10T02:36:04.083Z,0
2016-10-10T02:37:04.757Z,0
2016-10-10T02:38:05.432Z,0
2016-10-10T02:39:06.111Z,0
2016-10-10T02:40:06.774Z,0
2016-10-10T02:41:07.464Z,0
2016-10-10T02:42:08.136Z,0
2016-10-10T02:43:08.791Z,0
2016-10-10T02:44:09.462Z,0
2016-10-10T02:45:10.128Z,0
2016-10-10T02:46:10.812Z,0
2016-10-10T02:47:11.485Z,0
2016-10-10T02:48:12.141Z,0
2016-10-10T02:49:12.787Z,0
2016-10-10T02:50:13.443Z,0
2016-10-10T02:51:14.086Z,0
2016-10-10T02:52:14.739Z,0
2016-10-10T02:53:15.418Z,0
2016-10-10T02:54:16.071Z,0
2016-10-10T02:55:16.753Z,0
2016-10-10T02:56:17.413Z,0
2016-10-10T02:57:18.076Z,0
2016-10-10T02:58:18.726Z,0
2016-10-10T02:59:19.402Z,0
2016-10-10T03:00:20.068Z,0
2016-10-10T03:01:20.739Z,0
2016-10-10T03:02:21.411Z,0
2016-10-10T03:03:22.087Z,0
2016-10-10T03:04:22.751Z,0
2016-10-10T03:05:23.428Z,0
2016-10-10T03:06:24.104Z,0
2016-10-10T03:07:24.756Z,0
2016-10-10T03:08:25.417Z,0
2016-10-10T03:09:26.080Z,0
2016-10-10T03:10:26.740Z,0
2016-10-10T03:11:27.408Z,0
2016-10-10T03:12:28.088Z,0
2016-10-10T03:13:28.809Z,0
2016-10-10T03:14:29.479Z,0
2016-10-10T03:15:30.160Z,0
2016-10-10T03:16:30.824Z,0
2016-10-10T03:17:31.479Z,0
2016-10-10T03:18:32.142Z,0
2016-10-10T03:19:32.798Z,0
2016-10-10T03:20:33.475Z,0
2016-10-10T03:21:34.149Z,0
2016-10-10T03:22:34.817Z,0
2016-10-10T03:23:35.479Z,0
2016-10-10T03:24:36.148Z,0
2016-10-10T03:25:36.829Z,0
2016-10-10T03:26:37.498Z,0
2016-10-10T03:27:38.167Z,0
2016-10-10T03:28:38.842Z,0
2016-10-10T03:29:39.511Z,0
2016-10-10T03:30:40.193Z,0
2016-10-10T03:31:40.864Z,0
2016-10-10T03:32:41.538Z,0
2016-10-10T03:33:42.211Z,0
2016-10-10T03:34:42.861Z,0
2016-10-10T03:35:43.563Z,0
2016-10-10T03:36:44.228Z,0
2016-10-10T03:37:44.900Z,0
2016-10-10T03:38:45.571Z,0
2016-10-10T03:39:46.228Z,0
2016-10-10T03:40:46.917Z,0
2016-10-10T03:41:47.588Z,0
2016-10-10T03:42:48.264Z,0
2016-10-10T03:43:48.932Z,0
2016-10-10T03:44:49.604Z,0
2016-10-10T03:45:50.273Z,0
2016-10-10T03:46:50.942Z,0
2016-10-10T03:47:51.617Z,0
2016-10-10T03:48:52.289Z,0
2016-10-10T03:49:52.958Z,0
2016-10-10T03:50:53.635Z,0
2016-10-10T03:51:54.308Z,0
2016-10-10T03:52:54.980Z,0
2016-10-10T03:53:55.650Z,0
2016-10-10T03:54:56.333Z,0
2016-10-10T03:55:57.001Z,0
2016-10-10T03:56:57.673Z,0
2016-10-10T03:57:58.346Z,0
2016-10-10T03:58:59.025Z,0
2016-10-10T03:59:59.701Z,0
2016-10-10T04:01:00.360Z,0
2016-10-10T04:02:01.028Z,0
2016-10-10T04:03:01.778Z,0
2016-10-10T04:04:03.097Z,0
2016-10-10T04:05:03.759Z,0
2016-10-10T04:06:04.451Z,0
2016-10-10T04:07:05.134Z,0
2016-10-10T04:08:05.820Z,0
2016-10-10T04:09:06.528Z,0
2016-10-10T04:10:07.257Z,0
2016-10-10T04:11:07.925Z,0
2016-10-10T04:12:08.640Z,0
2016-10-10T04:13:10.020Z,0
2016-10-10T04:14:10.717Z,0
2016-10-10T04:15:11.413Z,0
2016-10-10T04:16:12.111Z,0
2016-10-10T04:17:12.804Z,0
2016-10-10T04:18:13.492Z,0
2016-10-10T04:19:14.138Z,0
2016-10-10T04:20:14.797Z,0
2016-10-10T04:21:15.515Z,0
2016-10-10T04:22:16.243Z,0
2016-10-10T04:23:16.913Z,0
2016-10-10T04:24:17.635Z,0
2016-10-10T04:25:18.412Z,0
2016-10-10T04:26:19.080Z,0
2016-10-10T04:27:19.759Z,0
2016-10-10T04:28:20.437Z,0
2016-10-10T04:29:21.090Z,0
2016-10-10T04:30:21.763Z,0
2016-10-10T04:31:22.437Z,0
2016-10-10T04:32:23.116Z,0
2016-10-10T04:33:23.789Z,0
2016-10-10T04:34:24.439Z,0
2016-10-10T04:35:25.108Z,0
2016-10-10T04:36:25.763Z,0
2016-10-10T04:37:26.423Z,0
2016-10-10T04:38:27.088Z,0
2016-10-10T04:39:27.743Z,0
2016-10-10T04:40:28.417Z,0
2016-10-10T04:41:29.090Z,0
2016-10-10T04:42:29.756Z,0
2016-10-10T04:43:30.431Z,0
2016-10-10T04:44:31.090Z,0
2016-10-10T04:45:31.773Z,0
2016-10-10T04:46:32.449Z,0
2016-10-10T04:47:33.122Z,0
2016-10-10T04:48:33.793Z,0
2016-10-10T04:49:34.471Z,0
2016-10-10T04:50:35.138Z,0
2016-10-10T04:51:35.808Z,0
2016-10-10T04:52:36.479Z,0
2016-10-10T04:53:37.152Z,0
2016-10-10T04:54:37.824Z,0
2016-10-10T04:55:38.495Z,0
2016-10-10T04:56:39.205Z,0
2016-10-10T04:57:39.869Z,0
2016-10-10T04:58:40.569Z,0
2016-10-10T04:59:41.221Z,0
2016-10-10T05:00:41.885Z,0
2016-10-10T05:01:42.553Z,0
2016-10-10T05:02:43.207Z,0
2016-10-10T05:03:43.881Z,0
2016-10-10T05:04:44.544Z,0
2016-10-10T05:05:45.200Z,0
2016-10-10T05:06:45.848Z,0
2016-10-10T05:07:46.512Z,0
2016-10-10T05:08:47.168Z,0
2016-10-10T05:09:47.830Z,4
2016-10-10T05:10:48.501Z,4
2016-10-10T05:11:49.163Z,4
2016-10-10T05:12:49.824Z,0
2016-10-10T05:13:50.511Z,4
2016-10-10T05:14:51.172Z,4
2016-10-10T05:15:51.865Z,4
2016-10-10T05:16:52.517Z,8
2016-10-10T05:17:53.193Z,8
2016-10-10T05:18:53.861Z,8
2016-10-10T05:19:54.527Z,12
2016-10-10T05:20:55.203Z,12
2016-10-10T05:21:55.866Z,16
2016-10-10T05:22:56.550Z,20
2016-10-10T05:23:57.217Z,20
2016-10-10T05:24:57.968Z,28
2016-10-10T05:25:58.716Z,32
2016-10-10T05:26:59.388Z,36
2016-10-10T05:28:00.064Z,36
2016-10-10T05:29:00.720Z,48
2016-10-10T05:30:01.760Z,48
2016-10-10T05:31:02.423Z,60
2016-10-10T05:32:03.284Z,68
2016-10-10T05:33:03.989Z,76
2016-10-10T05:34:04.668Z,80
2016-10-10T05:35:05.330Z,88
2016-10-10T05:36:06.003Z,100
2016-10-10T05:37:06.674Z,112
2016-10-10T05:38:07.353Z,120
2016-10-10T05:39:08.053Z,132
2016-10-10T05:40:08.704Z,148
2016-10-10T05:41:09.376Z,156
2016-10-10T05:42:10.105Z,168
2016-10-10T05:43:10.825Z,180
2016-10-10T05:44:11.490Z,192
2016-10-10T05:45:12.187Z,204
2016-10-10T05:46:12.824Z,216
2016-10-10T05:47:13.481Z,228
2016-10-10T05:48:14.142Z,244
2016-10-10T05:49:14.794Z,256
2016-10-10T05:50:15.466Z,268
2016-10-10T05:51:16.124Z,284
2016-10-10T05:52:16.820Z,300
2016-10-10T05:53:17.482Z,312
2016-10-10T05:54:18.133Z,336
2016-10-10T05:55:18.801Z,356
2016-10-10T05:56:19.488Z,368
2016-10-10T05:57:20.258Z,376
2016-10-10T05:58:20.942Z,388
2016-10-10T05:59:21.623Z,408
2016-10-10T06:00:22.304Z,444
2016-10-10T06:01:23.015Z,476
2016-10-10T06:02:23.691Z,500
2016-10-10T06:03:24.360Z,524
2016-10-10T06:04:25.049Z,552
2016-10-10T06:05:25.707Z,584
2016-10-10T06:06:26.373Z,620
2016-10-10T06:07:27.050Z,644
2016-10-10T06:08:27.718Z,656
2016-10-10T06:09:28.385Z,668
2016-10-10T06:10:29.075Z,688
2016-10-10T06:11:29.753Z,692
2016-10-10T06:12:30.412Z,696
2016-10-10T06:13:31.235Z,712
2016-10-10T06:14:31.997Z,728
2016-10-10T06:15:32.757Z,736
2016-10-10T06:16:33.603Z,744
2016-10-10T06:17:34.368Z,760
2016-10-10T06:18:35.370Z,780
2016-10-10T06:19:36.149Z,796
2016-10-10T06:20:36.995Z,816
2016-10-10T06:21:37.804Z,852
2016-10-10T06:22:38.538Z,884
2016-10-10T06:23:39.286Z,876
2016-10-10T06:24:40.070Z,848
2016-10-10T06:25:40.813Z,828
2016-10-10T06:26:41.586Z,836
2016-10-10T06:27:42.340Z,860
2016-10-10T06:28:43.125Z,880
2016-10-10T06:29:43.888Z,904
2016-10-10T06:30:44.680Z,944
2016-10-10T06:31:45.396Z,980
2016-10-10T06:32:46.131Z,976
2016-10-10T06:33:46.865Z,936
2016-10-10T06:34:47.628Z,916
2016-10-10T06:35:48.385Z,956
2016-10-10T06:36:49.127Z,1032
2016-10-10T06:37:49.921Z,1100
2016-10-10T06:38:50.671Z,1140
2016-10-10T06:39:51.432Z,1156
2016-10-10T06:40:52.202Z,1188
2016-10-10T06:41:52.951Z,1228
2016-10-10T06:42:53.755Z,1276
2016-10-10T06:43:54.475Z,1320
2016-10-10T06:44:55.217Z,1388
2016-10-10T06:45:55.900Z,1468
2016-10-10T06:46:56.667Z,1588
2016-10-10T06:47:57.465Z,1740
2016-10-10T06:48:58.217Z,1872
2016-10-10T06:49:59.010Z,1948
2016-10-10T06:50:59.670Z,2004
2016-10-10T06:52:00.406Z,2048
2016-10-10T06:53:01.199Z,2120
2016-10-10T06:54:01.930Z,2208
2016-10-10T06:55:02.637Z,2280
2016-10-10T06:56:03.375Z,2356
2016-10-10T06:57:04.151Z,2416
2016-10-10T06:58:04.917Z,2436
2016-10-10T06:59:05.638Z,2472
2016-10-10T07:00:06.443Z,2468
2016-10-10T07:01:07.151Z,2396
2016-10-10T07:02:07.925Z,2276
2016-10-10T07:03:08.704Z,2152
2016-10-10T07:04:09.469Z,2088
2016-10-10T07:05:10.242Z,2044
2016-10-10T07:06:11.080Z,2020
2016-10-10T07:07:11.865Z,2044
2016-10-10T07:08:12.625Z,2124
2016-10-10T07:09:13.343Z,2232
2016-10-10T07:10:14.117Z,2368
2016-10-10T07:11:14.887Z,2520
2016-10-10T07:12:15.667Z,2708
2016-10-10T07:13:16.451Z,2896
2016-10-10T07:14:17.239Z,3004
2016-10-10T07:15:18.021Z,2996
2016-10-10T07:16:18.838Z,2912
2016-10-10T07:17:19.617Z,2788
2016-10-10T07:18:20.376Z,2612
2016-10-10T07:19:21.158Z,2448
2016-10-10T07:20:21.942Z,2396
2016-10-10T07:21:22.737Z,2400
2016-10-10T07:22:23.521Z,2308
2016-10-10T07:23:24.290Z,2312
2016-10-10T07:24:24.979Z,2408
2016-10-10T07:25:25.675Z,2560
2016-10-10T07:26:26.367Z,2736
2016-10-10T07:27:27.102Z,2948
2016-10-10T07:28:27.793Z,3140
2016-10-10T07:29:28.505Z,3356
2016-10-10T07:30:29.248Z,3548
2016-10-10T07:31:29.963Z,3800
2016-10-10T07:32:30.634Z,4184
2016-10-10T07:33:31.324Z,4736
2016-10-10T07:34:32.070Z,5376
2016-10-10T07:35:32.817Z,5980
2016-10-10T07:36:33.504Z,6428
2016-10-10T07:37:34.212Z,6496
2016-10-10T07:38:34.915Z,6520
2016-10-10T07:39:35.612Z,6508
2016-10-10T07:40:36.341Z,6448
2016-10-10T07:41:37.081Z,6236
2016-10-10T07:42:37.813Z,5976
2016-10-10T07:43:38.523Z,5864
2016-10-10T07:44:39.220Z,5852
2016-10-10T07:45:39.978Z,5884
2016-10-10T07:46:40.691Z,5924
2016-10-10T07:47:41.452Z,6092
2016-10-10T07:48:42.186Z,6060
2016-10-10T07:49:42.878Z,6016
2016-10-10T07:50:43.592Z,5972
2016-10-10T07:51:44.293Z,6004
2016-10-10T07:52:45.048Z,6044
2016-10-10T07:53:45.718Z,6120
2016-10-10T07:54:46.438Z,6172
2016-10-10T07:55:47.153Z,6100
2016-10-10T07:56:47.924Z,5964
2016-10-10T07:57:48.618Z,5932
2016-10-10T07:58:49.359Z,6020
2016-10-10T07:59:50.084Z,6120
2016-10-10T08:00:50.801Z,6180
2016-10-10T08:01:51.581Z,6144
2016-10-10T08:02:52.331Z,6044
2016-10-10T08:03:53.209Z,5996
2016-10-10T08:04:54.059Z,6084
2016-10-10T08:05:54.884Z,6252
2016-10-10T08:06:55.596Z,6504
2016-10-10T08:07:56.339Z,6852
2016-10-10T08:08:57.021Z,7172
2016-10-10T08:09:57.725Z,7512
2016-10-10T08:10:58.477Z,7696
2016-10-10T08:11:59.266Z,7768
2016-10-10T08:12:59.991Z,7808
2016-10-10T08:14:00.704Z,7960
2016-10-10T08:15:01.402Z,8252
2016-10-10T08:16:02.121Z,8480
2016-10-10T08:17:02.818Z,8396
2016-10-10T08:18:03.575Z,9004
2016-10-10T08:19:04.293Z,9040
2016-10-10T08:20:04.988Z,8956
2016-10-10T08:21:05.694Z,9232
2016-10-10T08:22:06.432Z,10160
2016-10-10T08:23:07.191Z,10276
2016-10-10T08:24:07.924Z,9596
2016-10-10T08:25:08.679Z,9864
2016-10-10T08:26:09.374Z,10360
2016-10-10T08:27:10.077Z,11024
2016-10-10T08:28:10.778Z,12936
2016-10-10T08:29:11.497Z,11064
2016-10-10T08:30:12.269Z,10012
2016-10-10T08:31:13.006Z,9532
2016-10-10T08:32:13.786Z,9020
2016-10-10T08:33:14.506Z,8940
2016-10-10T08:34:15.326Z,9216
2016-10-10T08:35:16.127Z,9400
2016-10-10T08:36:16.869Z,9780
2016-10-10T08:37:17.596Z,10256
2016-10-10T08:38:18.352Z,10568
2016-10-10T08:39:19.106Z,10780
2016-10-10T08:40:19.856Z,11252
2016-10-10T08:41:20.712Z,11960
2016-10-10T08:42:21.454Z,11716
2016-10-10T08:43:22.175Z,11036
2016-10-10T08:44:22.878Z,10312
2016-10-10T08:45:23.630Z,10064
2016-10-10T08:46:24.376Z,9512
2016-10-10T08:47:25.127Z,9120
2016-10-10T08:48:25.878Z,8820
2016-10-10T08:49:26.775Z,8708
2016-10-10T08:50:27.491Z,8812
2016-10-10T08:51:28.247Z,9300
2016-10-10T08:52:29.238Z,9720
2016-10-10T08:53:30.205Z,10204
2016-10-10T08:54:31.201Z,10700
2016-10-10T08:55:31.948Z,11128
2016-10-10T08:56:32.710Z,11332
2016-10-10T08:57:33.497Z,11356
2016-10-10T08:58:34.224Z,10948
2016-10-10T08:59:34.955Z,11100
2016-10-10T09:00:35.691Z,10852
2016-10-10T09:01:36.469Z,11188
2016-10-10T09:02:37.354Z,11708
2016-10-10T09:03:38.163Z,11216
2016-10-10T09:04:38.923Z,10544
2016-10-10T09:05:39.749Z,9988
2016-10-10T09:06:40.666Z,9984
2016-10-10T09:07:41.476Z,10108
2016-10-10T09:08:42.314Z,10312
2016-10-10T09:09:43.136Z,10648
2016-10-10T09:10:43.893Z,10696
2016-10-10T09:11:44.655Z,10428
2016-10-10T09:12:45.389Z,10068
2016-10-10T09:13:46.287Z,9652
2016-10-10T09:14:47.129Z,9376
2016-10-10T09:15:47.957Z,8992
2016-10-10T09:16:48.797Z,8636
2016-10-10T09:17:49.668Z,8388
2016-10-10T09:18:50.536Z,8300
2016-10-10T09:19:51.503Z,8556
2016-10-10T09:20:52.507Z,9432
2016-10-10T09:21:53.413Z,10216
2016-10-10T09:22:54.223Z,10352
2016-10-10T09:23:55.000Z,9988
2016-10-10T09:24:55.823Z,9496
2016-10-10T09:25:57.351Z,9488
2016-10-10T09:26:58.184Z,9404
2016-10-10T09:27:59.005Z,9076
2016-10-10T09:28:59.835Z,8688
2016-10-10T09:30:00.697Z,8324
2016-10-10T09:31:01.447Z,8076
2016-10-10T09:32:02.300Z,8240
2016-10-10T09:33:03.137Z,8184
2016-10-10T09:34:03.842Z,8384
2016-10-10T09:35:04.627Z,8456
2016-10-10T09:36:05.326Z,8808
2016-10-10T09:37:06.106Z,8956
2016-10-10T09:38:06.921Z,8916
2016-10-10T09:39:07.678Z,8776
2016-10-10T09:40:08.424Z,8556
2016-10-10T09:41:09.147Z,8888
2016-10-10T09:42:09.874Z,9240
2016-10-10T09:43:10.635Z,9308
2016-10-10T09:44:11.444Z,9656
2016-10-10T09:45:12.245Z,10168
2016-10-10T09:46:13.004Z,10464
2016-10-10T09:47:13.752Z,10168
2016-10-10T09:48:14.490Z,9728
2016-10-10T09:49:15.287Z,9548
2016-10-10T09:50:16.039Z,9292
2016-10-10T09:51:16.942Z,8836
2016-10-10T09:52:17.689Z,8740
2016-10-10T09:53:18.601Z,9176
2016-10-10T09:54:19.416Z,9060
2016-10-10T09:55:20.204Z,8776
2016-10-10T09:56:21.073Z,8804
2016-10-10T09:57:22.128Z,9412
2016-10-10T09:58:22.782Z,9708
2016-10-10T09:59:23.571Z,9984
2016-10-10T10:00:24.306Z,10312
2016-10-10T10:01:25.060Z,10408
2016-10-10T10:02:25.825Z,10796
2016-10-10T10:03:26.586Z,10944
2016-10-10T10:04:27.335Z,11616
2016-10-10T10:05:28.091Z,11520
2016-10-10T10:06:28.983Z,11904
2016-10-10T10:07:29.757Z,12200
2016-10-10T10:08:30.528Z,12264
2016-10-10T10:09:31.282Z,11964
2016-10-10T10:10:32.033Z,11592
2016-10-10T10:11:32.859Z,11340
2016-10-10T10:12:33.662Z,11196
2016-10-10T10:13:34.404Z,10944
2016-10-10T10:14:35.201Z,10812
2016-10-10T10:15:35.953Z,10804
2016-10-10T10:16:36.729Z,10640
2016-10-10T10:17:37.535Z,10580
2016-10-10T10:18:38.213Z,10768
2016-10-10T10:19:39.044Z,11016
2016-10-10T10:20:39.843Z,10856
2016-10-10T10:21:40.624Z,10664
2016-10-10T10:22:41.400Z,10704
2016-10-10T10:23:42.207Z,10756
2016-10-10T10:24:43.009Z,10528
2016-10-10T10:25:43.842Z,10580
2016-10-10T10:26:44.655Z,10772
2016-10-10T10:27:45.418Z,10560
2016-10-10T10:28:46.206Z,10248
2016-10-10T10:29:47.037Z,9344
2016-10-10T10:30:47.825Z,8752
2016-10-10T10:31:48.577Z,8260
2016-10-10T10:32:49.354Z,8020
2016-10-10T10:33:50.127Z,7536
2016-10-10T10:34:50.982Z,7344
2016-10-10T10:35:51.685Z,7464
2016-10-10T10:36:52.455Z,7828
2016-10-10T10:37:53.223Z,8464
2016-10-10T10:38:53.994Z,9188
2016-10-10T10:39:54.721Z,9660
2016-10-10T10:40:55.505Z,9784
2016-10-10T10:41:56.254Z,9620
2016-10-10T10:42:57.017Z,8684
2016-10-10T10:43:57.769Z,8088
2016-10-10T10:44:58.538Z,7732
2016-10-10T10:45:59.381Z,7660
2016-10-10T10:47:00.019Z,6888
2016-10-10T10:48:00.793Z,6472
2016-10-10T10:49:01.500Z,6016
2016-10-10T10:50:02.295Z,5696
2016-10-10T10:51:03.058Z,4864
2016-10-10T10:52:03.865Z,4340
2016-10-10T10:53:04.651Z,4260
2016-10-10T10:54:05.430Z,4536
2016-10-10T10:55:06.166Z,4568
2016-10-10T10:56:06.929Z,4492
2016-10-10T10:57:07.643Z,4512
2016-10-10T10:58:08.365Z,4452
2016-10-10T10:59:09.161Z,4628
2016-10-10T11:00:09.919Z,4852
2016-10-10T11:01:10.669Z,4644
2016-10-10T11:02:11.431Z,4700
2016-10-10T11:03:12.153Z,4904
2016-10-10T11:04:12.923Z,4924
2016-10-10T11:05:13.666Z,5400
2016-10-10T11:06:14.405Z,5684
2016-10-10T11:07:15.178Z,5584
2016-10-10T11:08:15.970Z,5648
2016-10-10T11:09:16.731Z,5656
2016-10-10T11:10:17.539Z,5648
2016-10-10T11:11:18.289Z,5780
2016-10-10T11:12:19.082Z,5792
2016-10-10T11:13:19.837Z,6044
2016-10-10T11:14:20.603Z,6936
2016-10-10T11:15:21.321Z,7876
2016-10-10T11:16:22.105Z,8100
2016-10-10T11:17:22.831Z,8208
2016-10-10T11:18:23.583Z,8020
2016-10-10T11:19:24.355Z,6500
2016-10-10T11:20:25.157Z,6348
2016-10-10T11:21:25.868Z,6228
2016-10-10T11:22:26.588Z,6472
2016-10-10T11:23:27.368Z,7088
2016-10-10T11:24:28.097Z,7732
2016-10-10T11:25:28.886Z,8352
2016-10-10T11:26:29.650Z,9104
2016-10-10T11:27:30.415Z,9584
2016-10-10T11:28:31.168Z,9624
2016-10-10T11:29:31.874Z,9372
2016-10-10T11:30:32.604Z,8688
2016-10-10T11:31:33.372Z,7804
2016-10-10T11:32:34.184Z,7176
2016-10-10T11:33:34.980Z,6748
2016-10-10T11:34:35.719Z,6396
2016-10-10T11:35:36.511Z,5884
2016-10-10T11:36:37.279Z,5416
2016-10-10T11:37:38.064Z,4896
2016-10-10T11:38:38.822Z,4628
2016-10-10T11:39:39.592Z,4400
2016-10-10T11:40:40.420Z,4108
2016-10-10T11:41:41.157Z,3832
2016-10-10T11:42:41.911Z,3552
2016-10-10T11:43:42.613Z,3320
2016-10-10T11:44:43.388Z,3072
2016-10-10T11:45:44.128Z,2884
2016-10-10T11:46:44.865Z,2772
2016-10-10T11:47:45.615Z,2716
2016-10-10T11:48:46.355Z,2764
2016-10-10T11:49:47.093Z,2824
2016-10-10T11:50:47.815Z,2864
2016-10-10T11:51:48.586Z,2940
2016-10-10T11:52:49.340Z,3088
2016-10-10T11:53:50.106Z,3324
2016-10-10T11:54:50.820Z,3652
2016-10-10T11:55:51.572Z,3964
2016-10-10T11:56:52.356Z,4280
2016-10-10T11:57:53.121Z,4636
2016-10-10T11:58:53.887Z,5408
2016-10-10T11:59:54.664Z,6540
2016-10-10T12:00:55.384Z,7572
2016-10-10T12:01:56.125Z,7880
2016-10-10T12:02:56.857Z,8116
2016-10-10T12:03:57.583Z,8280
2016-10-10T12:04:58.306Z,8152
2016-10-10T12:05:59.101Z,7700
2016-10-10T12:06:59.852Z,7588
2016-10-10T12:08:00.586Z,7848
2016-10-10T12:09:01.340Z,8452
2016-10-10T12:10:02.098Z,9072
2016-10-10T12:11:02.824Z,8744
2016-10-10T12:12:03.539Z,7992
2016-10-10T12:13:04.279Z,7456
2016-10-10T12:14:05.005Z,7040
2016-10-10T12:15:05.762Z,6088
2016-10-10T12:16:06.539Z,5076
2016-10-10T12:17:07.287Z,4252
2016-10-10T12:18:08.006Z,3652
2016-10-10T12:19:08.817Z,3684
2016-10-10T12:20:09.574Z,4212
2016-10-10T12:21:10.287Z,4960
2016-10-10T12:22:11.039Z,5568
2016-10-10T12:23:11.819Z,6040
2016-10-10T12:24:12.547Z,6192
2016-10-10T12:25:13.292Z,6004
2016-10-10T12:26:13.993Z,5672
2016-10-10T12:27:14.750Z,5368
2016-10-10T12:28:15.497Z,5292
2016-10-10T12:29:16.282Z,5324
2016-10-10T12:30:17.045Z,5328
2016-10-10T12:31:17.814Z,5432
2016-10-10T12:32:18.578Z,5668
2016-10-10T12:33:19.297Z,6040
2016-10-10T12:34:20.076Z,6300
2016-10-10T12:35:20.824Z,6520
2016-10-10T12:36:21.574Z,6832
2016-10-10T12:37:22.352Z,6640
2016-10-10T12:38:23.101Z,6464
2016-10-10T12:39:23.835Z,6352
2016-10-10T12:40:24.662Z,6384
2016-10-10T12:41:25.395Z,6368
2016-10-10T12:42:26.103Z,6380
2016-10-10T12:43:26.876Z,6368
2016-10-10T12:44:27.667Z,6180
2016-10-10T12:45:28.410Z,6040
2016-10-10T12:46:29.092Z,5760
2016-10-10T12:47:29.834Z,5424
2016-10-10T12:48:30.533Z,5196
2016-10-10T12:49:31.259Z,5040
2016-10-10T12:50:32.048Z,4972
2016-10-10T12:51:32.786Z,4952
2016-10-10T12:52:33.559Z,4940
2016-10-10T12:53:34.277Z,4796
2016-10-10T12:54:34.996Z,4716
2016-10-10T12:55:35.768Z,4644
2016-10-10T12:56:36.520Z,4832
2016-10-10T12:57:37.264Z,4940
2016-10-10T12:58:37.972Z,4868
2016-10-10T12:59:38.710Z,4832
2016-10-10T13:00:39.428Z,4588
2016-10-10T13:01:40.205Z,4248
2016-10-10T13:02:41.008Z,4044
2016-10-10T13:03:41.794Z,3884
2016-10-10T13:04:42.557Z,3624
2016-10-10T13:05:43.312Z,3360
2016-10-10T13:06:44.081Z,2716
2016-10-10T13:07:44.822Z,2216
2016-10-10T13:08:45.617Z,1900
2016-10-10T13:09:46.375Z,1728
2016-10-10T13:10:47.139Z,1772
2016-10-10T13:11:47.974Z,1896
2016-10-10T13:12:48.744Z,1948
2016-10-10T13:13:49.546Z,2008
2016-10-10T13:14:50.294Z,1972
2016-10-10T13:15:51.110Z,1932
2016-10-10T13:16:51.833Z,1932
2016-10-10T13:17:52.632Z,1800
2016-10-10T13:18:53.419Z,1716
2016-10-10T13:19:54.267Z,1740
2016-10-10T13:20:55.084Z,1756
2016-10-10T13:21:55.883Z,1684
2016-10-10T13:22:56.691Z,1596
2016-10-10T13:23:57.461Z,1556
2016-10-10T13:24:58.227Z,1588
2016-10-10T13:25:59.053Z,1664
2016-10-10T13:26:59.852Z,1664
2016-10-10T13:28:00.639Z,1636
2016-10-10T13:29:01.467Z,1596
2016-10-10T13:30:02.261Z,1712
2016-10-10T13:31:03.044Z,1864
2016-10-10T13:32:03.875Z,1960
2016-10-10T13:33:04.658Z,1952
2016-10-10T13:34:05.456Z,1916
2016-10-10T13:35:06.233Z,1912
2016-10-10T13:36:07.002Z,1920
2016-10-10T13:37:07.759Z,1992
2016-10-10T13:38:08.520Z,2096
2016-10-10T13:39:09.237Z,2248
2016-10-10T13:40:09.949Z,2196
2016-10-10T13:41:10.738Z,2320
2016-10-10T13:42:11.525Z,2796
2016-10-10T13:43:12.285Z,3316
2016-10-10T13:44:13.134Z,3748
2016-10-10T13:45:13.899Z,4144
2016-10-10T13:46:14.637Z,4244
2016-10-10T13:47:15.481Z,3964
2016-10-10T13:48:16.334Z,4328
2016-10-10T13:49:17.031Z,4320
2016-10-10T13:50:17.873Z,4268
2016-10-10T13:51:18.662Z,4580
2016-10-10T13:52:19.444Z,4996
2016-10-10T13:53:20.176Z,4980
2016-10-10T13:54:21.103Z,5016
2016-10-10T13:55:21.868Z,5116
2016-10-10T13:56:22.618Z,5120
2016-10-10T13:57:23.432Z,4980
2016-10-10T13:58:24.222Z,4696
2016-10-10T13:59:25.042Z,4556
2016-10-10T14:00:25.868Z,4408